URMN 082300Z 20002MPS 9999 OVC006 M02/M03 Q1026 R24/////// NOSIG RMK MT OBSC QFE732
QNH:(hPa/inHg/mmHg)1026 / 30.3 / 770
QFE:(hPa/inHg/mmHg)1010 / 29.81 / 757
Temperature-2
Dew Point-3
Visibility> 10000
Weather
Cloud CoverOVC (600);
Transition Altitude5000 ft.
Transition LevelFL60
SQUAWK